createdAt,value
2023-05-04T00:02:19.444Z,24.92
2023-05-04T00:04:48.303Z,24.80
2023-05-04T00:07:17.344Z,24.92
2023-05-04T00:09:47.033Z,24.51
2023-05-04T00:12:15.563Z,24.97
2023-05-04T00:14:43.852Z,24.98
2023-05-04T00:17:12.955Z,24.79
2023-05-04T00:19:42.368Z,25.06
2023-05-04T00:22:11.150Z,24.99
2023-05-04T00:24:39.645Z,24.90
2023-05-04T00:27:10.345Z,25.01
2023-05-04T00:29:40.406Z,25.09
2023-05-04T00:32:09.150Z,24.94
2023-05-04T00:34:37.836Z,25.21
2023-05-04T00:37:06.806Z,25.04
2023-05-04T00:39:36.235Z,25.26
2023-05-04T00:42:04.943Z,25.29
2023-05-04T00:44:34.871Z,24.76
2023-05-04T00:47:04.252Z,25.29
2023-05-04T00:49:32.564Z,25.09
2023-05-04T00:52:03.073Z,25.05
2023-05-04T00:54:31.673Z,25.32
2023-05-04T00:57:00.444Z,25.26
2023-05-04T00:59:29.203Z,25.06
2023-05-04T01:01:59.207Z,25.10
2023-05-04T01:04:27.898Z,25.18
2023-05-04T01:07:02.139Z,24.65
2023-05-04T01:09:33.871Z,24.95
2023-05-04T01:12:06.668Z,24.71
2023-05-04T01:14:36.022Z,24.88
2023-05-04T01:17:07.498Z,24.57
2023-05-04T01:19:36.527Z,24.75
2023-05-04T01:22:08.318Z,24.74
2023-05-04T01:24:36.720Z,24.81
2023-05-04T01:27:07.825Z,24.75
2023-05-04T01:29:42.212Z,24.36
2023-05-04T01:32:12.062Z,24.93
2023-05-04T01:34:41.582Z,24.83
2023-05-04T01:37:12.353Z,24.52
2023-05-04T01:39:40.839Z,24.83
2023-05-04T01:42:09.504Z,25.06
2023-05-04T01:44:38.058Z,25.15
2023-05-04T01:47:07.005Z,24.62
2023-05-04T01:49:35.253Z,24.59
2023-05-04T01:52:04.143Z,24.58
2023-05-04T01:54:34.176Z,24.38
2023-05-04T01:57:03.243Z,24.24
2023-05-04T01:59:31.991Z,24.22
2023-05-04T02:02:00.595Z,24.48
2023-05-04T02:04:29.110Z,24.68
2023-05-04T02:06:57.772Z,24.93
2023-05-04T02:09:26.498Z,24.79
2023-05-04T02:11:56.732Z,24.81
2023-05-04T02:14:25.026Z,24.95
2023-05-04T02:16:53.893Z,24.89
2023-05-04T02:19:22.229Z,24.77
2023-05-04T02:21:52.616Z,24.85
2023-05-04T02:24:21.702Z,25.03
2023-05-04T02:26:50.316Z,24.91
2023-05-04T02:29:20.412Z,24.79
2023-05-04T02:31:49.179Z,24.82
2023-05-04T02:34:17.529Z,24.89
2023-05-04T02:36:47.305Z,25.19
2023-05-04T02:39:15.725Z,25.13
2023-05-04T02:41:44.634Z,25.11
2023-05-04T02:44:13.082Z,25.05
2023-05-04T02:46:43.613Z,24.85
2023-05-04T02:49:12.030Z,24.94
2023-05-04T02:51:40.627Z,24.96
2023-05-04T02:54:09.141Z,24.84
2023-05-04T02:56:37.683Z,25.06
2023-05-04T02:59:06.265Z,24.68
2023-05-04T03:01:35.097Z,24.67
2023-05-04T03:04:05.078Z,24.47
2023-05-04T03:06:33.987Z,24.81
2023-05-04T03:09:02.218Z,24.55
2023-05-04T03:11:31.876Z,24.44
2023-05-04T03:14:00.075Z,24.35
2023-05-04T03:16:29.117Z,24.58
2023-05-04T03:18:58.301Z,24.56
2023-05-04T03:21:28.284Z,24.42
2023-05-04T03:23:57.072Z,24.21
2023-05-04T03:26:25.870Z,24.15
2023-05-04T03:28:54.884Z,24.21
2023-05-04T03:31:23.594Z,24.42
2023-05-04T03:33:52.107Z,24.65
2023-05-04T03:36:20.747Z,24.60
2023-05-04T03:38:50.362Z,24.25
2023-05-04T03:41:19.087Z,24.18
2023-05-04T03:43:47.712Z,24.19
2023-05-04T03:46:16.401Z,24.09
2023-05-04T03:48:44.803Z,23.83
2023-05-04T03:51:13.464Z,23.70
2023-05-04T03:53:43.417Z,23.57
2023-05-04T03:56:15.106Z,23.16
2023-05-04T03:58:43.278Z,23.53
2023-05-04T04:01:12.002Z,23.26
2023-05-04T04:03:41.140Z,22.72
2023-05-04T04:06:10.767Z,22.46
2023-05-04T04:08:39.181Z,22.04
2023-05-04T04:11:07.766Z,22.00
2023-05-04T04:13:38.452Z,21.18
2023-05-04T04:16:07.876Z,20.51
2023-05-04T04:18:36.400Z,20.14
2023-05-04T04:21:05.276Z,19.69
2023-05-04T04:23:33.680Z,19.43
2023-05-04T04:26:02.949Z,19.34
2023-05-04T04:28:31.323Z,18.97
2023-05-04T04:31:02.044Z,18.44
2023-05-04T04:33:30.449Z,17.87
2023-05-04T04:35:59.156Z,17.35
2023-05-04T04:38:27.499Z,16.58
2023-05-04T04:40:55.971Z,16.70
2023-05-04T04:43:24.566Z,16.35
2023-05-04T04:45:54.034Z,15.74
2023-05-04T04:48:25.449Z,15.29
2023-05-04T04:50:54.294Z,15.18
2023-05-04T04:53:22.842Z,15.26
2023-05-04T04:55:52.446Z,14.33
2023-05-04T04:58:21.101Z,14.61
2023-05-04T05:00:52.376Z,13.92
2023-05-04T05:03:21.012Z,13.84
2023-05-04T05:05:51.220Z,12.84
2023-05-04T05:08:19.641Z,12.96
2023-05-04T05:10:48.131Z,12.29
2023-05-04T05:13:16.816Z,11.86
2023-05-04T05:15:46.573Z,11.96
2023-05-04T05:18:14.910Z,11.46
2023-05-04T05:20:43.791Z,10.98
2023-05-04T05:23:13.328Z,10.28
2023-05-04T05:25:44.018Z,10.37
2023-05-04T05:28:12.255Z,9.84
2023-05-04T05:30:41.001Z,9.33
2023-05-04T05:33:10.424Z,9.24
2023-05-04T05:35:39.191Z,9.40
2023-05-04T05:38:07.502Z,8.41
2023-05-04T05:40:37.968Z,8.42
2023-05-04T05:43:06.728Z,7.91
2023-05-04T05:45:35.296Z,7.64
2023-05-04T05:48:04.325Z,7.78
2023-05-04T05:50:33.053Z,7.89
2023-05-04T05:53:01.541Z,7.45
2023-05-04T05:55:30.110Z,6.99
2023-05-04T05:57:59.781Z,6.48
2023-05-04T06:00:28.644Z,6.34
2023-05-04T06:02:56.992Z,6.17
2023-05-04T06:05:25.952Z,6.42
2023-05-04T06:07:54.593Z,5.91
2023-05-04T06:10:23.334Z,5.56
2023-05-04T06:12:51.608Z,6.72
2023-05-04T06:15:21.591Z,6.66
2023-05-04T06:17:50.005Z,6.65
2023-05-04T06:20:19.234Z,6.36
2023-05-04T06:22:47.918Z,5.88
2023-05-04T06:25:16.644Z,6.13
2023-05-04T06:27:45.392Z,5.81
2023-05-04T06:30:16.083Z,5.76
2023-05-04T06:32:47.180Z,5.40
2023-05-04T06:35:16.383Z,4.42
2023-05-04T06:37:44.971Z,4.34
2023-05-04T06:40:16.121Z,4.40
2023-05-04T06:42:45.181Z,4.14
2023-05-04T06:45:16.027Z,3.84
2023-05-04T06:47:46.270Z,4.73
2023-05-04T06:50:15.784Z,5.26
2023-05-04T06:52:45.430Z,5.59
2023-05-04T06:55:15.444Z,4.88
2023-05-04T06:57:44.189Z,5.27
2023-05-04T07:00:15.073Z,4.96
2023-05-04T07:02:43.938Z,4.20
2023-05-04T07:05:14.879Z,4.20
2023-05-04T07:07:43.346Z,3.36
2023-05-04T07:10:12.535Z,2.99
2023-05-04T07:12:43.781Z,3.32
2023-05-04T07:15:13.231Z,2.40
2023-05-04T07:17:42.188Z,2.19
2023-05-04T07:20:13.263Z,2.07
2023-05-04T07:22:43.358Z,2.67
2023-05-04T07:25:12.174Z,4.05
2023-05-04T07:27:45.066Z,4.75
2023-05-04T07:30:15.337Z,4.15
2023-05-04T07:32:43.800Z,5.02
2023-05-04T07:35:12.851Z,5.87
2023-05-04T07:37:42.807Z,5.45
2023-05-04T07:40:15.137Z,4.74
2023-05-04T07:42:44.053Z,3.01
2023-05-04T07:45:13.398Z,3.17
2023-05-04T07:47:43.557Z,4.42
2023-05-04T07:50:15.022Z,4.86
2023-05-04T07:52:49.781Z,3.44
2023-05-04T07:55:33.327Z,3.48
2023-05-04T07:58:02.475Z,3.48
2023-05-04T08:00:31.217Z,2.99
2023-05-04T08:03:00.284Z,2.46
2023-05-04T08:05:29.104Z,1.43
2023-05-04T08:07:59.231Z,1.59
2023-05-04T08:10:27.724Z,1.44
2023-05-04T08:12:57.253Z,2.22
2023-05-04T08:15:25.700Z,3.11
2023-05-04T08:17:55.068Z,3.34
2023-05-04T08:20:24.187Z,4.22
2023-05-04T08:22:53.508Z,3.78
2023-05-04T08:25:23.626Z,2.44
2023-05-04T08:27:52.186Z,3.17
2023-05-04T08:30:20.567Z,4.55
2023-05-04T08:32:51.358Z,3.81
2023-05-04T08:35:19.662Z,3.40
2023-05-04T08:37:49.518Z,3.59
2023-05-04T08:40:19.219Z,3.26
2023-05-04T08:42:50.874Z,2.63
2023-05-04T08:45:19.505Z,2.56
2023-05-04T08:47:48.253Z,2.99
2023-05-04T08:50:17.376Z,1.94
2023-05-04T08:52:47.723Z,2.18
2023-05-04T08:55:17.254Z,2.89
2023-05-04T08:57:46.396Z,3.11
2023-05-04T09:00:18.168Z,2.35
2023-05-04T09:02:50.638Z,1.72
2023-05-04T09:05:19.776Z,1.62
2023-05-04T09:07:51.096Z,1.46
2023-05-04T09:10:20.197Z,1.07
2023-05-04T09:12:48.956Z,0.88
2023-05-04T09:15:19.950Z,0.38
2023-05-04T09:17:57.996Z,0.72
2023-05-04T09:20:27.485Z,1.28
2023-05-04T09:23:07.393Z,1.71
2023-05-04T09:25:36.176Z,1.59
2023-05-04T09:28:05.180Z,2.27
2023-05-04T09:30:34.758Z,1.40
2023-05-04T09:33:03.640Z,0.60
2023-05-04T09:35:34.144Z,0.00
2023-05-04T09:38:04.165Z,0.00
2023-05-04T09:40:33.118Z,0.38
2023-05-04T09:43:02.249Z,0.97
2023-05-04T09:45:41.661Z,0.45
2023-05-04T09:48:19.394Z,0.00
2023-05-04T09:50:53.746Z,0.00
2023-05-04T09:53:24.710Z,0.00
2023-05-04T09:56:06.517Z,0.00
2023-05-04T09:58:37.306Z,0.00
2023-05-04T10:01:09.163Z,0.00
2023-05-04T10:03:40.000Z,0.00
2023-05-04T10:06:09.859Z,0.00
2023-05-04T10:08:40.392Z,0.14
2023-05-04T10:11:08.674Z,0.00
2023-05-04T10:13:37.624Z,0.68
2023-05-04T10:16:15.526Z,1.59
2023-05-04T10:19:13.997Z,1.97
2023-05-04T10:21:50.420Z,1.41
2023-05-04T10:24:33.288Z,0.00
2023-05-04T10:27:07.445Z,0.00
2023-05-04T10:29:36.513Z,0.09
2023-05-04T10:32:08.250Z,0.62
2023-05-04T10:34:38.160Z,0.00
2023-05-04T10:37:17.596Z,0.00
2023-05-04T10:39:52.340Z,0.00
2023-05-04T10:42:20.994Z,0.00
2023-05-04T10:44:55.221Z,0.00
2023-05-04T10:47:33.976Z,0.00
2023-05-04T10:50:04.394Z,0.00
2023-05-04T10:52:32.816Z,0.00
2023-05-04T10:55:02.572Z,0.00
2023-05-04T10:57:31.562Z,0.00
2023-05-04T11:00:01.915Z,0.39
2023-05-04T11:02:34.077Z,0.89
2023-05-04T11:05:04.830Z,1.24
2023-05-04T11:07:37.182Z,0.43
2023-05-04T11:10:06.996Z,0.38
2023-05-04T11:12:35.830Z,0.62
2023-05-04T11:15:06.507Z,1.86
2023-05-04T11:17:36.531Z,1.31
2023-05-04T11:20:06.470Z,1.80
2023-05-04T11:22:34.809Z,1.83
2023-05-04T11:25:04.427Z,1.70
2023-05-04T11:27:33.123Z,2.42
2023-05-04T11:30:03.148Z,3.17
2023-05-04T11:32:37.015Z,4.27
2023-05-04T11:35:09.096Z,5.36
2023-05-04T11:37:41.562Z,4.95
2023-05-04T11:40:12.371Z,6.72
2023-05-04T11:42:41.550Z,7.38
2023-05-04T11:45:14.129Z,7.80
2023-05-04T11:47:45.151Z,7.85
2023-05-04T11:50:14.244Z,7.46
2023-05-04T11:52:43.852Z,8.48
2023-05-04T11:55:13.884Z,8.08
2023-05-04T11:57:42.222Z,7.82
2023-05-04T12:00:12.581Z,8.27
2023-05-04T12:02:41.025Z,9.01
2023-05-04T12:05:15.955Z,9.42
2023-05-04T12:07:44.689Z,10.21
2023-05-04T12:10:13.742Z,10.26
2023-05-04T12:12:42.263Z,10.60
2023-05-04T12:15:11.952Z,10.38
2023-05-04T12:17:43.765Z,10.24
2023-05-04T12:20:23.610Z,10.41
2023-05-04T12:22:52.316Z,10.43
2023-05-04T12:25:21.021Z,10.08
2023-05-04T12:27:49.577Z,9.56
2023-05-04T12:30:18.633Z,9.67
2023-05-04T12:32:47.214Z,9.75
2023-05-04T12:35:17.310Z,9.87
2023-05-04T12:37:45.778Z,9.91
2023-05-04T12:40:27.851Z,10.67
2023-05-04T12:42:56.927Z,10.79
2023-05-04T12:45:25.590Z,10.58
2023-05-04T12:47:53.980Z,11.34
2023-05-04T12:50:24.111Z,10.70
2023-05-04T12:52:52.463Z,10.70
2023-05-04T12:55:24.720Z,10.70
2023-05-04T12:57:53.755Z,10.72
2023-05-04T13:00:22.921Z,10.42
2023-05-04T13:02:51.705Z,10.51
2023-05-04T13:05:20.945Z,11.06
2023-05-04T13:07:50.895Z,11.52
2023-05-04T13:10:19.834Z,10.78
2023-05-04T13:12:48.901Z,10.57
2023-05-04T13:15:17.734Z,10.64
2023-05-04T13:17:46.157Z,10.65
2023-05-04T13:20:15.242Z,10.65
2023-05-04T13:22:43.828Z,10.17
2023-05-04T13:25:14.301Z,9.64
2023-05-04T13:27:42.614Z,9.94
2023-05-04T13:30:12.810Z,10.32
2023-05-04T13:32:42.250Z,11.18
2023-05-04T13:35:11.406Z,10.67
2023-05-04T13:37:39.784Z,10.58
2023-05-04T13:40:09.676Z,10.97
2023-05-04T13:42:39.419Z,10.92
2023-05-04T13:45:09.559Z,10.95
2023-05-04T13:47:38.062Z,11.52
2023-05-04T13:50:08.202Z,11.09
2023-05-04T13:52:37.516Z,11.54
2023-05-04T13:55:07.390Z,11.26
2023-05-04T13:57:35.799Z,10.95
2023-05-04T14:00:08.086Z,10.89
2023-05-04T14:02:37.099Z,11.37
2023-05-04T14:05:07.683Z,11.15
2023-05-04T14:07:37.124Z,11.49
2023-05-04T14:10:06.652Z,11.57
2023-05-04T14:12:37.824Z,11.53
2023-05-04T14:15:09.159Z,10.98
2023-05-04T14:17:39.791Z,10.66
2023-05-04T14:20:09.844Z,10.45
2023-05-04T14:22:41.411Z,10.49
2023-05-04T14:25:10.697Z,10.41
2023-05-04T14:27:39.297Z,10.79
2023-05-04T14:30:10.795Z,10.54
2023-05-04T14:32:39.017Z,9.80
2023-05-04T14:35:10.915Z,10.13
2023-05-04T14:37:41.118Z,11.10
2023-05-04T14:40:11.031Z,10.87
2023-05-04T14:42:39.888Z,11.47
2023-05-04T14:45:11.904Z,11.57
2023-05-04T14:47:42.357Z,11.48
2023-05-04T14:50:12.291Z,11.21
2023-05-04T14:52:40.921Z,11.00
2023-05-04T14:55:10.513Z,11.26
2023-05-04T14:57:39.010Z,12.21
2023-05-04T15:00:09.467Z,11.97
2023-05-04T15:02:39.720Z,12.18
2023-05-04T15:05:10.367Z,11.96
2023-05-04T15:07:38.776Z,11.57
2023-05-04T15:10:09.583Z,11.79
2023-05-04T15:12:39.616Z,11.78
2023-05-04T15:15:09.337Z,11.64
2023-05-04T15:17:37.711Z,11.60
2023-05-04T15:20:10.015Z,10.91
2023-05-04T15:22:38.680Z,10.92
2023-05-04T15:25:08.334Z,11.43
2023-05-04T15:27:36.976Z,11.18
2023-05-04T15:30:09.110Z,11.60
2023-05-04T15:32:37.803Z,12.18
2023-05-04T15:35:08.421Z,11.37
2023-05-04T15:37:36.832Z,11.42
2023-05-04T15:40:06.228Z,11.26
2023-05-04T15:42:34.864Z,11.08
2023-05-04T15:45:03.635Z,11.60
2023-05-04T15:47:32.178Z,12.32
2023-05-04T15:50:01.340Z,12.38
2023-05-04T15:52:31.584Z,11.89
2023-05-04T15:55:12.339Z,12.50
2023-05-04T15:57:49.197Z,12.60
2023-05-04T16:00:18.164Z,12.88
2023-05-04T16:02:46.600Z,13.09
2023-05-04T16:05:15.474Z,13.24
2023-05-04T16:07:45.327Z,12.77
2023-05-04T16:10:17.321Z,12.77
2023-05-04T16:12:45.640Z,12.76
2023-05-04T16:15:14.510Z,12.21
2023-05-04T16:17:43.199Z,12.25
2023-05-04T16:20:12.547Z,11.96
2023-05-04T16:22:41.034Z,12.60
2023-05-04T16:25:11.916Z,12.50
2023-05-04T16:27:40.686Z,12.57
2023-05-04T16:30:10.718Z,13.29
2023-05-04T16:32:39.073Z,12.91
2023-05-04T16:35:09.083Z,12.85
2023-05-04T16:37:38.292Z,12.61
2023-05-04T16:40:14.223Z,12.19
2023-05-04T16:42:43.118Z,12.36
2023-05-04T16:45:14.706Z,12.72
2023-05-04T16:47:43.108Z,12.09
2023-05-04T16:50:12.604Z,12.37
2023-05-04T16:52:41.556Z,12.53
2023-05-04T16:55:12.572Z,13.56
2023-05-04T16:57:41.244Z,14.02
2023-05-04T17:00:12.193Z,13.57
2023-05-04T17:02:40.767Z,13.76
2023-05-04T17:05:10.762Z,13.56
2023-05-04T17:07:39.969Z,13.77
2023-05-04T17:10:10.927Z,13.92
2023-05-04T17:12:40.941Z,13.73
2023-05-04T17:15:11.441Z,14.01
2023-05-04T17:17:40.408Z,14.00
2023-05-04T17:20:14.933Z,14.29
2023-05-04T17:22:44.639Z,14.54
2023-05-04T17:25:14.692Z,14.66
2023-05-04T17:27:45.210Z,14.66
2023-05-04T17:30:14.942Z,14.96
2023-05-04T17:32:43.441Z,14.73
2023-05-04T17:35:23.946Z,14.72
2023-05-04T17:37:55.924Z,15.23
2023-05-04T17:40:27.698Z,15.21
2023-05-04T17:42:58.059Z,15.29
2023-05-04T17:45:27.390Z,14.90
2023-05-04T17:47:57.279Z,15.58
2023-05-04T17:50:26.891Z,15.46
2023-05-04T17:52:56.030Z,15.57
2023-05-04T17:55:25.478Z,15.58
2023-05-04T17:57:54.960Z,15.74
2023-05-04T18:00:25.538Z,15.74
2023-05-04T18:02:54.108Z,16.12
2023-05-04T18:05:23.051Z,16.40
2023-05-04T18:07:51.763Z,16.30
2023-05-04T18:10:20.593Z,16.68
2023-05-04T18:12:48.943Z,16.51
2023-05-04T18:15:18.460Z,16.65
2023-05-04T18:17:48.943Z,16.45
2023-05-04T18:20:17.455Z,16.69
2023-05-04T18:22:45.744Z,17.08
2023-05-04T18:25:15.413Z,17.12
2023-05-04T18:27:43.851Z,17.10
2023-05-04T18:30:13.142Z,16.96
2023-05-04T18:32:43.480Z,17.58
2023-05-04T18:35:13.596Z,16.96
2023-05-04T18:37:42.101Z,17.58
2023-05-04T18:40:11.695Z,17.41
2023-05-04T18:42:40.401Z,17.64
2023-05-04T18:45:11.385Z,17.71
2023-05-04T18:47:39.799Z,17.76
2023-05-04T18:50:10.545Z,17.74
2023-05-04T18:52:40.326Z,17.70
2023-05-04T18:55:09.509Z,17.83
2023-05-04T18:57:37.950Z,17.81
2023-05-04T19:00:09.027Z,18.04
2023-05-04T19:02:38.419Z,17.86
2023-05-04T19:05:07.503Z,17.79
2023-05-04T19:07:35.791Z,18.13
2023-05-04T19:10:06.882Z,17.62
2023-05-04T19:12:35.469Z,17.79
2023-05-04T19:15:04.716Z,17.89
2023-05-04T19:17:34.503Z,18.31
2023-05-04T19:20:03.420Z,18.58
2023-05-04T19:22:31.942Z,18.54
2023-05-04T19:25:04.114Z,18.21
2023-05-04T19:27:34.139Z,18.47
2023-05-04T19:30:02.965Z,18.62
2023-05-04T19:32:33.048Z,18.60
2023-05-04T19:35:02.612Z,18.57
2023-05-04T19:37:31.016Z,18.70
2023-05-04T19:39:59.758Z,18.69
2023-05-04T19:42:28.377Z,19.01
2023-05-04T19:44:58.596Z,18.97
2023-05-04T19:47:26.914Z,19.23
2023-05-04T19:49:55.418Z,19.12
2023-05-04T19:52:23.904Z,19.01
2023-05-04T19:54:53.855Z,19.10
2023-05-04T19:57:22.213Z,19.28
2023-05-04T19:59:50.814Z,19.16
2023-05-04T20:02:20.509Z,19.08
2023-05-04T20:04:49.332Z,19.19
2023-05-04T20:07:17.602Z,19.13
2023-05-04T20:09:46.254Z,18.96
2023-05-04T20:12:14.495Z,19.38
2023-05-04T20:14:43.867Z,19.34
2023-05-04T20:17:12.233Z,19.30
2023-05-04T20:19:43.084Z,19.25
2023-05-04T20:22:11.508Z,19.59
2023-05-04T20:24:40.897Z,19.59
2023-05-04T20:27:09.709Z,19.55
2023-05-04T20:29:38.235Z,19.46
2023-05-04T20:32:07.406Z,19.62
2023-05-04T20:34:36.493Z,19.60
2023-05-04T20:37:06.213Z,19.52
2023-05-04T20:39:35.244Z,19.59
2023-05-04T20:42:04.058Z,19.67
2023-05-04T20:44:32.668Z,19.59
2023-05-04T20:47:00.978Z,19.75
2023-05-04T20:49:29.568Z,19.85
2023-05-04T20:51:58.167Z,19.80
2023-05-04T20:54:28.091Z,19.57
2023-05-04T20:56:56.558Z,19.96
2023-05-04T20:59:25.672Z,19.77
2023-05-04T21:01:54.200Z,19.84
2023-05-04T21:04:22.893Z,19.92
2023-05-04T21:06:51.259Z,19.92
2023-05-04T21:09:20.046Z,20.02
2023-05-04T21:11:49.709Z,19.85
2023-05-04T21:14:18.338Z,20.02
2023-05-04T21:16:46.613Z,19.92
2023-05-04T21:19:15.192Z,20.16
2023-05-04T21:21:43.538Z,20.08
2023-05-04T21:24:13.625Z,19.96
2023-05-04T21:26:42.484Z,19.80
2023-05-04T21:29:15.798Z,19.25
2023-05-04T21:31:44.313Z,19.61
2023-05-04T21:34:13.124Z,19.50
2023-05-04T21:36:41.827Z,19.70
2023-05-04T21:39:10.424Z,19.86
2023-05-04T21:41:39.786Z,19.87
2023-05-04T21:44:08.434Z,20.31
2023-05-04T21:46:38.014Z,20.12
2023-05-04T21:49:08.552Z,19.39
2023-05-04T21:51:37.054Z,20.28
2023-05-04T21:54:05.806Z,20.56
2023-05-04T21:56:33.990Z,20.44
2023-05-04T21:59:03.150Z,20.57
2023-05-04T22:01:31.425Z,20.60
2023-05-04T22:04:01.529Z,20.29
2023-05-04T22:06:30.585Z,20.22
2023-05-04T22:08:59.198Z,20.53
2023-05-04T22:11:27.589Z,20.76
2023-05-04T22:13:56.624Z,20.67
2023-05-04T22:16:24.935Z,20.65
2023-05-04T22:18:53.773Z,20.70
2023-05-04T22:21:23.305Z,20.51
2023-05-04T22:23:52.154Z,20.64
2023-05-04T22:26:20.445Z,20.67
2023-05-04T22:28:48.947Z,20.64
2023-05-04T22:31:17.454Z,20.59
2023-05-04T22:33:46.282Z,20.53
2023-05-04T22:36:14.515Z,20.52
2023-05-04T22:38:45.218Z,20.34
2023-05-04T22:41:14.613Z,20.50
2023-05-04T22:43:43.191Z,20.88
2023-05-04T22:46:15.879Z,20.77
2023-05-04T22:48:44.463Z,21.29
2023-05-04T22:51:13.464Z,21.30
2023-05-04T22:53:42.067Z,21.55
2023-05-04T22:56:12.025Z,21.11
2023-05-04T22:58:40.865Z,21.39
2023-05-04T23:01:10.282Z,21.03
2023-05-04T23:03:39.401Z,21.38
2023-05-04T23:06:08.773Z,21.74
2023-05-04T23:08:37.545Z,21.51
2023-05-04T23:11:06.029Z,21.67
2023-05-04T23:13:36.748Z,21.36
2023-05-04T23:16:05.550Z,21.29
2023-05-04T23:18:34.156Z,21.37
2023-05-04T23:21:02.349Z,21.44
2023-05-04T23:23:31.286Z,21.30
2023-05-04T23:25:59.554Z,21.34
2023-05-04T23:28:28.739Z,21.45
2023-05-04T23:30:58.602Z,21.57
2023-05-04T23:33:27.326Z,21.92
2023-05-04T23:35:56.822Z,21.74
2023-05-04T23:38:25.436Z,21.78
2023-05-04T23:40:53.992Z,21.88
2023-05-04T23:43:23.006Z,21.99
2023-05-04T23:45:51.670Z,22.44
2023-05-04T23:48:21.999Z,22.15
2023-05-04T23:50:53.922Z,22.14
2023-05-04T23:53:22.706Z,22.56
2023-05-04T23:55:58.112Z,22.17
2023-05-04T23:58:27.027Z,22.76
